Time;durP1;ratioP1;P1;durP2;ratioP2;P2;SDS_P1;SDS_P2;PMS_P1;PMS_P2;Temp;Humidity;BMP_temperature;BMP_pressure;BME280_temperature;BME280_humidity;BME280_pressure;Samples;Min_cycle;Max_cycle;Signal;HPM_P1;HPM_P2
2022/12/26 00:00:36;;;;;;;26.27;12.80;;;6.20;99.90;;;;;;5028060;28;20580;-61
2022/12/26 00:03:04;;;;;;;36.87;16.33;;;6.20;99.90;;;;;;5028435;28;20669;-62
2022/12/26 00:05:35;;;;;;;32.57;14.43;;;6.20;99.90;;;;;;5029246;28;20256;-61
2022/12/26 00:08:03;;;;;;;36.53;15.63;;;6.20;99.90;;;;;;5029849;28;21185;-61
2022/12/26 00:10:31;;;;;;;40.37;17.03;;;6.20;99.90;;;;;;5026758;28;20684;-61
2022/12/26 00:13:00;;;;;;;35.57;16.07;;;6.20;99.90;;;;;;5029170;28;20205;-61
2022/12/26 00:15:27;;;;;;;41.50;17.53;;;6.20;99.90;;;;;;5030223;28;20747;-62
2022/12/26 00:17:54;;;;;;;32.37;15.03;;;6.20;99.90;;;;;;5031458;28;20526;-61
2022/12/26 00:20:21;;;;;;;38.10;16.37;;;6.20;99.90;;;;;;5030117;28;20206;-62
2022/12/26 00:22:48;;;;;;;36.33;16.87;;;6.20;99.90;;;;;;5029063;28;20571;-61
2022/12/26 00:25:15;;;;;;;39.33;17.93;;;6.20;99.90;;;;;;5027718;28;20198;-61
2022/12/26 00:27:44;;;;;;;42.27;17.23;;;6.20;99.90;;;;;;5030968;28;20227;-61
2022/12/26 00:30:12;;;;;;;38.80;17.60;;;6.20;99.90;;;;;;5029840;28;20558;-61
2022/12/26 00:32:39;;;;;;;32.40;15.13;;;6.20;99.90;;;;;;5011124;28;20227;-61
2022/12/26 00:35:07;;;;;;;29.50;14.13;;;6.20;99.90;;;;;;5029155;28;20213;-61
2022/12/26 00:37:34;;;;;;;23.63;11.67;;;6.20;99.90;;;;;;5029136;28;20204;-61
2022/12/26 00:40:01;;;;;;;34.83;15.50;;;6.30;99.90;;;;;;5028516;28;20194;-61
2022/12/26 00:42:28;;;;;;;35.00;14.50;;;6.30;99.90;;;;;;5030728;28;20213;-61
2022/12/26 00:44:56;;;;;;;39.70;17.97;;;6.30;99.90;;;;;;5029816;28;20196;-61
2022/12/26 00:47:24;;;;;;;40.43;17.57;;;6.40;99.90;;;;;;5030892;28;20208;-61
2022/12/26 00:49:51;;;;;;;36.90;16.93;;;6.30;99.90;;;;;;5027610;28;20194;-61
2022/12/26 00:52:18;;;;;;;37.80;16.53;;;6.30;99.90;;;;;;5029935;28;20217;-61
2022/12/26 00:54:45;;;;;;;31.33;14.83;;;6.30;99.90;;;;;;5027931;28;20193;-61
2022/12/26 00:57:13;;;;;;;32.43;14.67;;;6.30;99.90;;;;;;5030467;28;20560;-61
2022/12/26 00:59:40;;;;;;;32.73;14.97;;;6.20;99.90;;;;;;5029368;28;20208;-61
2022/12/26 01:02:36;;;;;;;23.93;12.37;;;6.30;99.90;;;;;;5030185;28;20557;-61
2022/12/26 01:04:56;;;;;;;31.90;14.60;;;6.30;99.90;;;;;;5027325;28;20632;-60
2022/12/26 01:07:23;;;;;;;29.87;13.07;;;6.30;99.90;;;;;;5005148;28;20243;-61
2022/12/26 01:09:50;;;;;;;28.03;13.87;;;6.40;99.90;;;;;;4988190;28;20203;-62
2022/12/26 01:12:17;;;;;;;36.10;15.97;;;6.40;99.90;;;;;;4991010;28;20287;-62
2022/12/26 01:14:44;;;;;;;31.13;14.87;;;6.40;99.90;;;;;;4989028;28;20225;-61
2022/12/26 01:17:13;;;;;;;31.83;16.37;;;6.40;99.90;;;;;;4991802;28;20203;-61
2022/12/26 01:19:40;;;;;;;34.33;15.47;;;6.40;99.90;;;;;;4990701;28;20272;-61
2022/12/26 01:22:07;;;;;;;36.00;16.33;;;6.40;99.90;;;;;;4989796;28;20205;-61
2022/12/26 01:24:34;;;;;;;36.07;16.87;;;6.40;99.90;;;;;;4986367;28;20195;-61
2022/12/26 01:27:01;;;;;;;35.03;16.40;;;6.40;99.90;;;;;;4990245;28;20194;-62
2022/12/26 01:29:29;;;;;;;33.80;15.67;;;6.40;99.90;;;;;;4990709;28;20202;-61
2022/12/26 01:31:56;;;;;;;26.77;13.23;;;6.40;99.90;;;;;;4991230;28;20246;-61
2022/12/26 01:34:24;;;;;;;21.47;11.90;;;6.40;99.90;;;;;;4990476;28;20209;-61
2022/12/26 01:36:52;;;;;;;24.30;12.90;;;6.40;99.90;;;;;;4993028;28;20190;-62
2022/12/26 01:39:19;;;;;;;28.43;14.57;;;6.40;99.90;;;;;;4989596;28;20206;-61
2022/12/26 01:41:47;;;;;;;27.60;13.33;;;6.40;99.90;;;;;;4994548;28;20214;-61
2022/12/26 01:44:47;;;;;;;33.10;14.73;;;6.40;99.90;;;;;;4990838;28;20200;-61
2022/12/26 01:47:15;;;;;;;31.53;15.63;;;6.40;99.90;;;;;;4990398;28;20494;-61
2022/12/26 01:49:46;;;;;;;25.20;13.20;;;6.40;99.90;;;;;;4990521;28;20207;-61
2022/12/26 01:52:19;;;;;;;24.30;12.37;;;6.40;99.90;;;;;;4994515;28;20215;-61
2022/12/26 01:54:50;;;;;;;29.17;13.47;;;6.40;99.90;;;;;;4988830;28;20207;-62
2022/12/26 01:57:20;;;;;;;26.57;13.33;;;6.40;99.90;;;;;;4990941;28;20212;-60
2022/12/26 01:59:49;;;;;;;23.50;12.37;;;6.50;99.90;;;;;;4986545;28;20199;-60
2022/12/26 02:02:17;;;;;;;24.83;13.33;;;6.40;99.90;;;;;;5463267;23;20631;-64
2022/12/26 02:07:38;;;;;;;28.90;13.67;;;6.50;99.90;;;;;;4941936;28;20207;-64
2022/12/26 02:10:09;;;;;;;27.53;13.80;;;6.50;99.90;;;;;;4964814;28;20219;-65
2022/12/26 02:12:37;;;;;;;28.40;13.90;;;6.50;99.90;;;;;;4966856;28;20214;-64
2022/12/26 02:15:06;;;;;;;25.17;12.83;;;6.50;99.90;;;;;;4967738;28;20238;-64
2022/12/26 02:17:33;;;;;;;21.87;11.77;;;6.50;99.90;;;;;;4965972;28;20200;-64
2022/12/26 02:20:15;;;;;;;24.37;12.77;;;6.50;99.90;;;;;;4969462;28;20193;-64
2022/12/26 02:23:09;;;;;;;20.57;11.97;;;6.60;99.90;;;;;;4965735;28;20221;-65
2022/12/26 02:26:05;;;;;;;17.43;9.67;;;6.60;99.90;;;;;;4967631;28;20199;-64
2022/12/26 02:28:57;;;;;;;18.73;10.13;;;6.60;99.90;;;;;;4968864;28;20206;-65
2022/12/26 02:31:32;;;;;;;17.13;9.23;;;6.70;99.90;;;;;;4953970;28;20291;-66
2022/12/26 02:34:09;;;;;;;18.00;8.70;;;6.70;99.90;;;;;;4952205;28;20199;-66
2022/12/26 02:36:50;;;;;;;13.17;7.37;;;6.70;99.90;;;;;;4965202;28;20548;-64
2022/12/26 02:39:30;;;;;;;19.73;9.83;;;6.70;99.90;;;;;;4966988;28;20204;-64
2022/12/26 02:42:06;;;;;;;19.93;10.60;;;6.70;99.90;;;;;;4958731;28;20207;-65
2022/12/26 02:47:36;;;;;;;19.80;10.83;;;6.70;99.90;;;;;;4966617;28;20366;-65
2022/12/26 03:13:12;;;;;;;16.00;9.47;;;6.70;99.90;;;;;;4964637;28;20224;-66
2022/12/26 03:18:31;;;;;;;20.50;10.80;;;6.70;99.90;;;;;;4946760;28;20661;-65
2022/12/26 03:21:01;;;;;;;17.50;10.13;;;6.60;99.90;;;;;;4967851;28;20232;-65
2022/12/26 03:23:30;;;;;;;15.87;9.13;;;6.70;99.90;;;;;;4967878;28;20206;-65
2022/12/26 03:28:44;;;;;;;19.63;11.80;;;6.70;99.90;;;;;;4967478;28;20188;-65
2022/12/26 03:31:13;;;;;;;24.87;11.77;;;6.70;99.90;;;;;;4968186;28;20227;-64
2022/12/26 03:36:39;;;;;;;23.90;12.23;;;6.70;99.90;;;;;;4967558;28;20219;-66
2022/12/26 03:39:13;;;;;;;26.00;13.10;;;6.70;99.90;;;;;;4965588;28;20199;-65
2022/12/26 04:44:21;;;;;;;21.03;12.47;;;6.50;99.90;;;;;;4969544;28;20219;-66
2022/12/26 04:46:49;;;;;;;22.60;11.47;;;6.50;99.90;;;;;;4971045;28;20286;-66
2022/12/26 04:52:04;;;;;;;25.83;11.70;;;6.50;99.90;;;;;;4970185;28;20187;-67
2022/12/26 04:54:32;;;;;;;21.27;12.40;;;6.60;99.90;;;;;;4970068;28;20255;-66
2022/12/26 04:56:59;;;;;;;22.67;11.67;;;6.60;99.90;;;;;;4968360;28;20196;-66
2022/12/26 04:59:28;;;;;;;21.50;11.53;;;6.60;99.90;;;;;;4975316;28;20209;-65
2022/12/26 05:10:17;;;;;;;23.60;12.97;;;6.60;99.90;;;;;;4970119;28;20254;-66
2022/12/26 05:12:45;;;;;;;21.57;11.63;;;6.60;99.90;;;;;;4967842;28;20207;-66
2022/12/26 05:15:14;;;;;;;27.97;13.03;;;6.60;99.90;;;;;;4961036;28;20199;-66
2022/12/26 05:28:49;;;;;;;22.23;12.07;;;6.70;99.90;;;;;;4967293;28;20194;-65
2022/12/26 05:31:18;;;;;;;20.37;11.17;;;6.70;99.90;;;;;;4967486;28;20207;-66
2022/12/26 05:36:33;;;;;;;22.17;11.20;;;6.70;99.90;;;;;;4969632;28;20272;-66
2022/12/26 05:39:00;;;;;;;17.40;9.67;;;6.70;99.90;;;;;;4967840;28;20196;-66
2022/12/26 05:41:27;;;;;;;17.67;10.13;;;6.80;99.90;;;;;;4965632;28;20201;-65
2022/12/26 05:43:55;;;;;;;24.37;11.47;;;6.80;99.90;;;;;;4968845;28;20199;-65
2022/12/26 05:46:23;;;;;;;21.43;10.63;;;6.80;99.90;;;;;;4967411;28;20600;-65
2022/12/26 05:48:50;;;;;;;20.00;10.17;;;6.80;99.90;;;;;;4966182;28;20200;-64
2022/12/26 05:51:18;;;;;;;20.83;10.83;;;6.80;99.90;;;;;;4970051;28;20202;-65
2022/12/26 05:53:45;;;;;;;19.00;10.23;;;6.80;99.90;;;;;;4974269;28;20272;-65
2022/12/26 05:56:14;;;;;;;20.90;10.33;;;6.80;99.90;;;;;;4966613;28;20216;-65
2022/12/26 05:58:41;;;;;;;18.60;9.50;;;6.80;99.90;;;;;;4970024;28;20208;-66
2022/12/26 06:01:10;;;;;;;15.83;8.73;;;6.90;99.90;;;;;;4959873;28;20632;-65
2022/12/26 06:03:40;;;;;;;18.90;9.93;;;6.90;99.90;;;;;;4968383;28;20232;-65
2022/12/26 06:06:07;;;;;;;17.63;9.27;;;6.90;99.90;;;;;;4957967;28;20199;-66
2022/12/26 06:08:34;;;;;;;15.43;9.40;;;6.90;99.90;;;;;;4966768;28;20200;-66
2022/12/26 06:11:04;;;;;;;18.23;9.77;;;6.90;99.90;;;;;;4952967;28;20315;-66
2022/12/26 06:13:32;;;;;;;17.57;9.77;;;6.90;99.90;;;;;;4969464;28;20200;-66
2022/12/26 06:15:59;;;;;;;17.10;9.70;;;6.90;99.90;;;;;;4966825;28;20199;-66
2022/12/26 06:18:26;;;;;;;21.47;9.47;;;6.90;99.90;;;;;;4954272;28;20571;-66
2022/12/26 06:20:55;;;;;;;16.57;8.57;;;6.90;99.90;;;;;;4954185;28;20208;-66
2022/12/26 06:23:22;;;;;;;14.97;8.50;;;6.90;99.90;;;;;;4966329;28;20204;-66
2022/12/26 06:25:55;;;;;;;18.40;8.83;;;6.90;99.90;;;;;;4968279;28;20296;-65
2022/12/26 06:28:22;;;;;;;17.33;9.97;;;6.90;99.90;;;;;;4968981;28;20202;-65
2022/12/26 06:30:50;;;;;;;16.50;8.90;;;6.90;99.90;;;;;;4969017;28;20204;-66
2022/12/26 06:33:17;;;;;;;15.60;8.63;;;6.90;99.90;;;;;;4956990;28;20219;-66
2022/12/26 06:35:45;;;;;;;16.57;8.70;;;6.90;99.90;;;;;;4969199;28;20193;-67
2022/12/26 06:38:32;;;;;;;14.10;8.70;;;6.90;99.90;;;;;;4969204;28;20203;-66
2022/12/26 06:40:59;;;;;;;13.97;8.23;;;6.90;99.90;;;;;;4967913;28;20200;-66
2022/12/26 06:43:26;;;;;;;15.57;8.80;;;6.90;99.90;;;;;;4967238;28;20786;-65
2022/12/26 06:45:56;;;;;;;14.37;8.03;;;6.90;99.90;;;;;;4953430;28;20204;-65
2022/12/26 06:48:24;;;;;;;12.97;7.83;;;7.00;99.90;;;;;;4968750;28;20612;-66
2022/12/26 06:50:53;;;;;;;12.83;7.37;;;6.90;99.90;;;;;;4967741;28;20199;-65
2022/12/26 06:53:22;;;;;;;12.57;8.13;;;6.90;99.90;;;;;;4968088;28;20256;-66
2022/12/26 06:55:49;;;;;;;14.17;8.17;;;7.00;99.90;;;;;;4952234;28;20196;-66
2022/12/26 06:58:18;;;;;;;12.33;7.60;;;7.00;99.90;;;;;;4968420;28;20208;-66
2022/12/26 07:00:45;;;;;;;12.37;7.23;;;7.00;99.90;;;;;;4967229;28;20200;-65
2022/12/26 07:03:12;;;;;;;14.93;7.83;;;7.80;99.90;;;;;;4952069;28;20256;-66
2022/12/26 07:05:39;;;;;;;9.87;6.40;;;7.00;99.90;;;;;;4965281;28;20205;-67
2022/12/26 07:08:06;;;;;;;10.37;6.43;;;7.00;99.90;;;;;;4969513;28;20214;-64
2022/12/26 07:10:36;;;;;;;10.50;6.97;;;7.00;99.90;;;;;;4967594;28;20196;-65
2022/12/26 07:13:03;;;;;;;10.47;6.97;;;7.00;99.90;;;;;;4967832;28;20212;-65
2022/12/26 07:15:31;;;;;;;10.40;6.70;;;7.10;99.90;;;;;;4968641;28;20199;-65
2022/12/26 07:17:58;;;;;;;12.07;7.37;;;7.10;99.90;;;;;;4969119;28;20226;-65
2022/12/26 07:20:26;;;;;;;10.73;6.30;;;7.10;99.90;;;;;;4966448;28;20208;-66
2022/12/26 07:22:54;;;;;;;13.37;7.07;;;7.10;99.90;;;;;;4952166;28;20196;-65
2022/12/26 07:25:22;;;;;;;10.97;7.07;;;7.10;99.90;;;;;;4971602;28;20279;-66
2022/12/26 07:27:53;;;;;;;11.63;6.87;;;7.10;99.90;;;;;;4968694;28;20189;-65
2022/12/26 07:30:20;;;;;;;10.57;7.13;;;7.10;99.90;;;;;;4971476;28;20275;-65
2022/12/26 07:32:47;;;;;;;9.50;6.27;;;7.10;99.90;;;;;;4972750;28;20279;-64
2022/12/26 07:35:14;;;;;;;10.13;6.60;;;7.10;99.90;;;;;;4954568;28;20204;-65
2022/12/26 07:37:42;;;;;;;8.87;6.67;;;7.10;99.90;;;;;;4957580;28;20205;-65
2022/12/26 07:40:11;;;;;;;12.20;6.77;;;7.10;99.90;;;;;;4973323;28;20228;-65
2022/12/26 07:42:38;;;;;;;9.73;5.80;;;7.10;99.90;;;;;;4953245;28;20204;-65
2022/12/26 07:45:08;;;;;;;6.33;5.20;;;7.10;99.90;;;;;;4972745;28;20208;-65
2022/12/26 07:47:36;;;;;;;6.67;5.43;;;7.10;99.90;;;;;;4970650;28;20723;-65
2022/12/26 07:50:03;;;;;;;6.90;4.97;;;7.10;99.90;;;;;;4971048;28;20251;-65
2022/12/26 07:52:30;;;;;;;9.67;6.07;;;7.10;99.90;;;;;;4971938;28;20239;-65
2022/12/26 07:54:57;;;;;;;10.60;5.30;;;7.10;99.90;;;;;;4970894;28;20204;-66
2022/12/26 07:57:25;;;;;;;9.23;5.77;;;7.10;99.90;;;;;;4958430;28;20295;-65
2022/12/26 07:59:52;;;;;;;8.07;5.73;;;7.10;99.90;;;;;;4971810;28;20195;-67
2022/12/26 08:06:10;;;;;;;7.37;5.40;;;7.10;99.90;;;;;;4601879;28;20223;-65
2022/12/26 08:08:37;;;;;;;7.83;5.23;;;7.20;99.90;;;;;;4970336;28;20662;-65
2022/12/26 08:11:06;;;;;;;6.73;5.17;;;7.30;99.90;;;;;;4968902;28;20226;-66
2022/12/26 08:13:34;;;;;;;7.13;5.10;;;7.20;99.90;;;;;;4972276;28;20208;-65
2022/12/26 08:16:06;;;;;;;6.07;4.83;;;7.30;99.90;;;;;;4968490;28;20196;-66
2022/12/26 08:18:33;;;;;;;4.50;3.80;;;7.30;99.90;;;;;;4971614;28;20204;-66
2022/12/26 08:21:00;;;;;;;6.83;5.00;;;7.30;99.90;;;;;;4968186;28;20203;-66
2022/12/26 08:23:29;;;;;;;7.37;4.30;;;7.30;99.90;;;;;;4969901;28;20204;-67
2022/12/26 08:25:56;;;;;;;7.47;4.37;;;7.30;99.90;;;;;;4969374;28;20662;-64
2022/12/26 08:28:24;;;;;;;5.53;4.13;;;7.40;99.90;;;;;;4971743;28;20204;-65
2022/12/26 08:30:51;;;;;;;5.40;4.50;;;7.40;99.90;;;;;;4968001;28;20193;-66
2022/12/26 08:33:19;;;;;;;6.67;4.73;;;7.40;99.90;;;;;;4970991;28;20578;-66
2022/12/26 08:35:46;;;;;;;5.97;4.17;;;7.40;99.90;;;;;;4968925;28;20237;-66
2022/12/26 08:38:13;;;;;;;3.87;3.20;;;7.40;99.90;;;;;;4968110;28;20199;-66
2022/12/26 08:40:42;;;;;;;6.90;5.00;;;7.40;99.90;;;;;;4969288;28;20542;-66
2022/12/26 08:43:09;;;;;;;8.80;5.60;;;7.50;99.90;;;;;;4968570;28;20200;-66
2022/12/26 08:45:36;;;;;;;9.77;5.70;;;7.50;99.90;;;;;;4965957;28;20193;-67
2022/12/26 08:48:04;;;;;;;5.40;4.47;;;7.50;99.90;;;;;;4955536;28;20197;-66
2022/12/26 08:50:32;;;;;;;5.37;4.43;;;7.50;99.90;;;;;;4970151;28;20193;-66
2022/12/26 08:52:59;;;;;;;6.93;5.40;;;7.50;99.90;;;;;;4959215;28;20223;-65
2022/12/26 08:55:26;;;;;;;9.83;6.33;;;7.60;99.90;;;;;;4969840;28;20204;-66
2022/12/26 08:57:55;;;;;;;10.17;5.30;;;7.60;99.90;;;;;;4968993;28;20678;-67
2022/12/26 09:00:25;;;;;;;7.87;5.13;;;7.60;99.90;;;;;;4969904;28;20555;-66
2022/12/26 09:02:52;;;;;;;7.00;4.27;;;7.50;99.90;;;;;;4969919;28;20717;-65
2022/12/26 09:05:19;;;;;;;6.73;5.00;;;7.60;99.90;;;;;;4968296;28;20185;-66
2022/12/26 09:07:46;;;;;;;6.73;5.20;;;7.60;99.90;;;;;;4955456;28;20299;-65
2022/12/26 09:10:14;;;;;;;9.50;5.50;;;7.60;99.90;;;;;;4970124;28;20216;-65
2022/12/26 09:12:41;;;;;;;5.93;4.63;;;7.60;99.90;;;;;;4951906;28;20670;-66
2022/12/26 09:15:10;;;;;;;7.73;5.20;;;7.50;99.90;;;;;;4970336;28;20212;-66
2022/12/26 09:17:37;;;;;;;7.93;5.60;;;7.60;99.90;;;;;;4955778;28;20278;-66
2022/12/26 09:20:06;;;;;;;11.00;7.13;;;7.60;99.90;;;;;;4968099;28;20193;-65
2022/12/26 09:22:51;;;;;;;14.00;8.23;;;7.60;99.90;;;;;;4970169;28;20810;-67
2022/12/26 09:25:19;;;;;;;16.87;9.00;;;7.50;99.90;;;;;;4967817;28;20347;-66
2022/12/26 09:27:47;;;;;;;15.27;9.03;;;7.50;99.90;;;;;;4969337;28;20284;-66
2022/12/26 09:30:16;;;;;;;12.93;7.93;;;7.50;99.90;;;;;;4970281;28;20189;-66
2022/12/26 09:32:44;;;;;;;19.10;10.37;;;7.60;99.90;;;;;;4958108;28;20219;-66
2022/12/26 09:35:11;;;;;;;20.73;10.17;;;7.60;99.90;;;;;;4958863;28;20216;-66
2022/12/26 09:37:39;;;;;;;22.73;10.80;;;7.60;99.90;;;;;;4968394;28;20284;-67
2022/12/26 09:40:17;;;;;;;21.43;10.73;;;7.60;99.90;;;;;;4966566;28;20241;-65
2022/12/26 09:42:57;;;;;;;21.80;11.10;;;7.60;99.90;;;;;;4967915;28;20184;-65
2022/12/26 09:45:43;;;;;;;20.13;10.53;;;7.60;99.90;;;;;;4952629;28;20571;-64
2022/12/26 09:59:17;;;;;;;27.77;12.73;;;7.60;99.90;;;;;;4966611;28;20247;-66
2022/12/26 10:01:48;;;;;;;22.03;12.17;;;7.60;99.90;;;;;;4965770;28;20278;-66
2022/12/26 10:04:23;;;;;;;21.63;11.10;;;7.70;99.90;;;;;;4969647;28;20197;-66
2022/12/26 10:06:57;;;;;;;19.77;10.77;;;7.60;99.90;;;;;;4967882;28;20262;-66
2022/12/26 10:09:55;;;;;;;18.17;10.77;;;7.70;99.90;;;;;;4964518;28;20644;-66
2022/12/26 10:12:36;;;;;;;17.90;10.37;;;7.80;99.90;;;;;;4951383;28;20666;-66
2022/12/26 10:15:12;;;;;;;15.93;8.97;;;7.80;99.90;;;;;;4962873;28;20211;-66
2022/12/26 10:17:48;;;;;;;18.47;9.93;;;7.80;99.90;;;;;;4969990;28;20278;-66
2022/12/26 10:20:25;;;;;;;13.40;9.00;;;7.90;99.90;;;;;;4969353;28;20188;-66
2022/12/26 10:23:13;;;;;;;14.07;7.97;;;7.90;99.90;;;;;;4950357;28;20236;-66
2022/12/26 10:25:46;;;;;;;21.33;12.37;;;8.00;99.90;;;;;;4969405;28;20208;-66
2022/12/26 10:28:20;;;;;;;21.10;12.10;;;8.00;99.90;;;;;;4969934;28;20185;-66
2022/12/26 11:33:32;;;;;;;22.10;12.73;;;8.70;99.90;;;;;;4684094;28;20715;-66
2022/12/26 11:36:10;;;;;;;18.33;10.50;;;8.80;99.90;;;;;;4971054;28;20190;-66
2022/12/26 11:38:49;;;;;;;16.87;9.83;;;8.70;99.90;;;;;;4971962;28;20207;-66
2022/12/26 11:41:38;;;;;;;11.37;8.17;;;8.80;99.90;;;;;;4971614;28;20296;-65
2022/12/26 11:44:24;;;;;;;11.03;7.20;;;8.90;99.90;;;;;;4958882;28;20221;-65
2022/12/26 11:46:56;;;;;;;12.17;7.93;;;8.90;99.90;;;;;;4972461;28;20194;-65
2022/12/26 11:49:33;;;;;;;25.73;13.30;;;9.00;99.90;;;;;;4967712;28;20197;-66
2022/12/26 11:52:02;;;;;;;37.37;19.07;;;9.10;99.90;;;;;;4968519;28;20205;-65
2022/12/26 11:54:35;;;;;;;34.40;17.83;;;9.10;99.90;;;;;;4981248;28;20239;-65
2022/12/26 11:57:29;;;;;;;40.80;21.73;;;9.20;99.90;;;;;;4968161;28;20214;-65
2022/12/26 12:00:15;;;;;;;33.93;17.47;;;9.20;99.90;;;;;;4928570;28;20197;-66
2022/12/26 12:02:43;;;;;;;33.43;18.13;;;9.10;99.90;;;;;;4970420;28;20199;-65
2022/12/26 12:05:20;;;;;;;29.50;16.27;;;9.10;99.90;;;;;;4969237;28;20203;-65
2022/12/26 12:08:08;;;;;;;23.10;13.37;;;9.20;99.90;;;;;;4968624;28;20198;-65
2022/12/26 12:10:59;;;;;;;30.27;16.13;;;9.20;99.90;;;;;;4955300;28;20204;-65
2022/12/26 12:13:52;;;;;;;31.17;17.40;;;9.20;99.90;;;;;;4970960;28;20309;-65
2022/12/26 12:16:44;;;;;;;26.37;14.43;;;9.30;99.90;;;;;;4970708;28;20318;-65
2022/12/26 12:19:23;;;;;;;23.33;12.20;;;9.20;99.90;;;;;;4968973;28;20207;-65
2022/12/26 12:22:06;;;;;;;18.87;10.77;;;9.20;99.90;;;;;;4971936;28;20255;-65
2022/12/26 12:24:44;;;;;;;14.30;8.93;;;9.30;99.90;;;;;;4969136;28;20214;-66
2022/12/26 12:27:19;;;;;;;14.07;8.50;;;9.30;99.90;;;;;;4968040;28;20193;-66
2022/12/26 12:30:03;;;;;;;11.63;6.83;;;9.30;99.90;;;;;;4971343;28;20207;-65
2022/12/26 12:32:46;;;;;;;7.87;5.30;;;9.40;99.90;;;;;;4966715;28;20272;-65
2022/12/26 12:35:36;;;;;;;5.17;4.00;;;9.40;99.90;;;;;;4969840;28;20265;-65
2022/12/26 12:38:21;;;;;;;3.43;2.93;;;9.40;99.90;;;;;;4969629;28;20222;-65
2022/12/26 12:40:56;;;;;;;3.73;2.73;;;9.40;99.90;;;;;;4965376;28;20215;-65
2022/12/26 12:43:31;;;;;;;3.23;2.30;;;9.50;99.90;;;;;;4956090;28;20651;-65
2022/12/26 12:46:10;;;;;;;1.60;1.50;;;9.50;99.90;;;;;;4969440;28;20203;-65
2022/12/26 12:48:58;;;;;;;1.60;1.50;;;9.60;99.90;;;;;;4967957;28;20200;-66
2022/12/26 12:51:34;;;;;;;1.50;1.40;;;9.60;99.90;;;;;;4970078;28;20205;-67
2022/12/26 12:54:36;;;;;;;1.53;1.43;;;9.60;99.90;;;;;;4968599;28;20253;-66
2022/12/26 12:57:11;;;;;;;1.60;1.50;;;9.60;99.90;;;;;;4969071;28;20538;-66
2022/12/26 12:59:46;;;;;;;1.47;1.37;;;9.70;99.90;;;;;;4969272;28;20887;-66
2022/12/26 13:02:20;;;;;;;1.40;1.30;;;9.70;99.90;;;;;;4970117;28;20287;-66
2022/12/26 13:04:54;;;;;;;1.30;1.20;;;9.70;99.90;;;;;;4969218;28;20193;-66
2022/12/26 13:07:26;;;;;;;0.90;0.90;;;9.70;99.90;;;;;;4967228;28;20202;-65
2022/12/26 13:09:59;;;;;;;1.87;1.40;;;9.70;99.90;;;;;;4970456;28;20300;-66
2022/12/26 13:12:29;;;;;;;1.67;1.37;;;9.80;99.90;;;;;;4968806;28;20211;-66
2022/12/26 13:15:00;;;;;;;1.00;1.00;;;9.80;99.90;;;;;;4966450;28;20620;-66
2022/12/26 13:17:34;;;;;;;1.33;1.23;;;9.80;99.90;;;;;;4970225;28;20200;-66
2022/12/26 13:20:05;;;;;;;1.63;1.53;;;9.80;99.90;;;;;;4969028;28;20278;-66
2022/12/26 13:25:23;;;;;;;2.03;1.47;;;9.80;99.90;;;;;;4968140;28;20217;-66
2022/12/26 13:27:54;;;;;;;2.13;1.70;;;9.80;99.90;;;;;;4969959;28;20380;-66
2022/12/26 13:30:21;;;;;;;2.27;1.80;;;9.80;99.90;;;;;;4970024;28;20216;-66
2022/12/26 13:32:48;;;;;;;2.13;1.60;;;9.80;99.90;;;;;;4970416;28;20209;-66
2022/12/26 13:35:53;;;;;;;1.73;1.47;;;9.80;99.90;;;;;;4966020;28;20281;-66
2022/12/26 13:38:21;;;;;;;1.83;1.60;;;9.80;99.90;;;;;;4956985;28;20213;-65
2022/12/26 13:43:53;;;;;;;1.90;1.70;;;9.80;99.90;;;;;;4951946;28;20215;-65
2022/12/26 13:44:02;;;;;;;1.73;1.50;;;9.80;99.90;;;;;;4955973;28;20264;-65
2022/12/26 13:46:37;;;;;;;2.03;1.80;;;9.80;99.90;;;;;;4968532;28;20196;-67
2022/12/26 13:49:05;;;;;;;2.70;1.70;;;9.80;99.90;;;;;;4967364;28;20278;-66
2022/12/26 13:51:57;;;;;;;2.23;1.73;;;9.80;99.90;;;;;;4968995;28;20193;-65
2022/12/26 13:54:27;;;;;;;1.23;1.13;;;9.80;99.90;;;;;;4952896;28;20291;-65
2022/12/26 13:57:30;;;;;;;1.30;1.20;;;9.80;99.90;;;;;;4965958;28;20206;-66
2022/12/26 14:00:17;;;;;;;1.50;1.30;;;9.80;99.90;;;;;;4967060;28;20200;-66
2022/12/26 14:03:20;;;;;;;2.03;1.40;;;9.80;99.90;;;;;;4967998;28;20207;-65
2022/12/26 14:06:05;;;;;;;2.03;1.47;;;9.80;99.90;;;;;;4968597;28;20202;-65
2022/12/26 14:08:41;;;;;;;1.60;1.40;;;9.80;99.90;;;;;;4969852;28;20203;-66
2022/12/26 14:11:23;;;;;;;1.97;1.40;;;9.80;99.90;;;;;;4964944;28;20220;-66
2022/12/26 14:14:07;;;;;;;1.33;1.17;;;9.90;99.90;;;;;;4956796;28;20275;-65
2022/12/26 14:16:44;;;;;;;1.17;1.07;;;9.90;99.90;;;;;;4949548;28;20388;-66
2022/12/26 14:19:31;;;;;;;2.10;1.60;;;9.80;99.90;;;;;;4968096;28;20487;-65
2022/12/26 14:22:08;;;;;;;1.93;1.60;;;9.90;99.90;;;;;;4956933;28;20207;-66
2022/12/26 14:24:54;;;;;;;1.50;1.40;;;9.80;99.90;;;;;;4963718;28;20188;-66
2022/12/26 14:27:33;;;;;;;1.93;1.67;;;9.80;99.90;;;;;;4967327;28;20207;-65
2022/12/26 14:30:21;;;;;;;1.50;1.40;;;9.80;99.90;;;;;;4968745;28;20699;-65
2022/12/26 14:33:02;;;;;;;1.30;1.20;;;9.80;99.90;;;;;;4967325;28;20553;-66
2022/12/26 14:35:35;;;;;;;2.20;1.40;;;9.80;99.90;;;;;;4965030;28;20249;-64
2022/12/26 14:38:19;;;;;;;1.07;1.00;;;9.80;99.90;;;;;;4965610;28;20270;-66
2022/12/26 14:40:59;;;;;;;1.17;1.00;;;9.80;99.90;;;;;;4967185;28;20191;-66
2022/12/26 14:43:35;;;;;;;1.30;1.20;;;9.80;99.90;;;;;;4968815;28;20527;-66
2022/12/26 14:46:09;;;;;;;1.13;1.07;;;9.80;99.90;;;;;;4967202;28;20269;-66
2022/12/26 14:48:54;;;;;;;1.50;1.40;;;9.90;99.90;;;;;;4968303;28;20192;-66
2022/12/26 14:51:42;;;;;;;1.23;1.07;;;9.80;99.90;;;;;;4966392;28;20196;-66
2022/12/26 14:54:38;;;;;;;1.20;1.10;;;9.80;99.90;;;;;;4967784;28;20209;-65
2022/12/26 14:57:42;;;;;;;1.97;1.50;;;9.80;99.90;;;;;;4965564;28;20207;-65
2022/12/26 15:00:26;;;;;;;1.40;1.30;;;9.80;99.90;;;;;;4953133;28;20262;-64
2022/12/26 15:03:22;;;;;;;1.53;1.43;;;9.80;99.90;;;;;;4967207;28;20295;-66
2022/12/26 15:05:51;;;;;;;1.53;1.43;;;9.80;99.90;;;;;;4967172;28;20209;-65
2022/12/26 15:08:54;;;;;;;3.00;1.63;;;9.80;99.90;;;;;;4966946;28;20193;-65
2022/12/26 15:11:46;;;;;;;1.93;1.80;;;9.80;99.90;;;;;;4966701;28;20552;-65
2022/12/26 15:14:40;;;;;;;2.57;2.00;;;9.80;99.90;;;;;;4964560;28;20200;-67
2022/12/26 15:17:17;;;;;;;1.50;1.40;;;9.80;99.90;;;;;;4955456;28;20209;-65
2022/12/26 15:20:27;;;;;;;1.40;1.30;;;9.80;99.90;;;;;;4967811;28;20287;-66
2022/12/26 15:23:23;;;;;;;1.47;1.37;;;9.80;99.90;;;;;;4941856;28;20657;-65
2022/12/26 15:26:30;;;;;;;1.70;1.13;;;9.80;99.90;;;;;;4965004;28;20200;-65
2022/12/26 15:29:23;;;;;;;1.57;1.40;;;9.90;99.90;;;;;;4966522;28;20346;-66
2022/12/26 15:32:03;;;;;;;1.23;1.13;;;9.90;99.90;;;;;;4967164;28;20199;-67
2022/12/26 15:35:00;;;;;;;2.87;1.80;;;9.90;99.90;;;;;;4962982;28;20235;-65
2022/12/26 15:38:07;;;;;;;3.70;1.70;;;9.90;99.90;;;;;;4967031;28;20196;-66
2022/12/26 15:40:43;;;;;;;2.80;1.60;;;9.90;99.90;;;;;;4949287;28;20215;-66
2022/12/26 15:43:34;;;;;;;1.47;1.37;;;9.90;99.90;;;;;;4966170;28;20206;-66
2022/12/26 15:46:08;;;;;;;2.33;2.00;;;9.90;99.90;;;;;;4970666;28;20506;-65
2022/12/26 15:48:48;;;;;;;2.80;2.00;;;9.90;99.90;;;;;;4966537;28;20574;-65
2022/12/26 15:51:21;;;;;;;1.83;1.73;;;9.90;99.90;;;;;;4971923;28;20510;-66
2022/12/26 15:54:07;;;;;;;2.50;2.30;;;9.90;99.90;;;;;;4961485;28;20214;-66
2022/12/26 15:56:56;;;;;;;1.90;1.80;;;9.90;99.90;;;;;;4966566;28;20268;-66
2022/12/26 15:59:45;;;;;;;2.50;2.00;;;9.90;99.90;;;;;;4956093;28;20298;-65
2022/12/26 16:02:14;;;;;;;2.63;2.00;;;9.90;99.90;;;;;;4967646;28;20217;-65
2022/12/26 16:04:46;;;;;;;2.23;1.83;;;9.90;99.90;;;;;;4969915;28;20693;-66
2022/12/26 16:07:29;;;;;;;2.23;2.00;;;9.90;99.90;;;;;;4970912;28;20197;-66
2022/12/26 16:09:58;;;;;;;2.27;1.80;;;9.90;99.90;;;;;;4951468;28;20669;-66
2022/12/26 16:12:29;;;;;;;2.20;2.00;;;10.00;99.90;;;;;;4967712;28;20207;-65
2022/12/26 16:15:03;;;;;;;3.47;2.80;;;9.90;99.90;;;;;;4971895;28;20192;-67
2022/12/26 16:17:31;;;;;;;4.43;2.93;;;9.90;99.90;;;;;;4966473;28;20226;-66
2022/12/26 16:19:58;;;;;;;3.27;2.83;;;9.90;99.90;;;;;;4971945;28;20208;-65
2022/12/26 16:22:42;;;;;;;2.63;2.43;;;9.90;99.90;;;;;;4960380;28;20207;-65
2022/12/26 16:25:11;;;;;;;2.53;2.10;;;9.90;99.90;;;;;;4968900;28;20186;-66
2022/12/26 16:27:40;;;;;;;4.83;2.67;;;9.90;99.90;;;;;;4953245;28;20299;-64
2022/12/26 16:30:15;;;;;;;2.20;2.00;;;10.00;99.90;;;;;;4971070;28;20218;-64
2022/12/26 16:32:43;;;;;;;3.73;2.60;;;9.90;99.90;;;;;;4976427;28;20194;-64
2022/12/26 16:35:19;;;;;;;2.60;2.40;;;10.00;99.90;;;;;;4963293;28;20235;-64
2022/12/26 16:37:48;;;;;;;3.60;2.70;;;10.00;99.90;;;;;;4951782;28;20198;-64
2022/12/26 16:40:24;;;;;;;3.23;2.23;;;10.00;99.90;;;;;;4953825;28;20260;-64
2022/12/26 16:42:59;;;;;;;2.20;2.00;;;9.90;99.90;;;;;;4953553;28;20184;-65
2022/12/26 16:45:28;;;;;;;2.30;2.00;;;10.00;99.90;;;;;;4948906;28;20223;-66
2022/12/26 16:47:56;;;;;;;3.10;2.27;;;10.00;99.90;;;;;;4954674;28;20201;-65